createdAt,value
2023-05-19T00:04:02.338Z,101988.63
2023-05-19T00:09:07.927Z,101996.03
2023-05-19T00:14:11.280Z,102008.88
2023-05-19T00:19:14.340Z,102008.78
2023-05-19T00:24:17.389Z,102014.00
2023-05-19T00:29:20.299Z,102010.72
2023-05-19T00:34:23.203Z,102011.81
2023-05-19T00:39:26.101Z,102019.47
2023-05-19T00:44:29.006Z,102018.59
2023-05-19T00:49:32.005Z,102020.19
2023-05-19T00:54:35.530Z,102021.06
2023-05-19T00:59:38.426Z,102022.34
2023-05-19T01:04:42.271Z,102021.25
2023-05-19T01:09:45.364Z,102021.66
2023-05-19T01:14:48.418Z,102017.44
2023-05-19T01:19:57.459Z,102020.63
2023-05-19T01:25:23.699Z,102018.22
2023-05-19T01:30:36.144Z,102028.91
2023-05-19T01:35:39.746Z,102024.13
2023-05-19T01:40:44.248Z,102028.63
2023-05-19T01:45:47.605Z,102023.72
2023-05-19T01:50:50.823Z,102032.94
2023-05-19T01:55:55.615Z,102019.72
2023-05-19T02:01:17.909Z,102024.69
2023-05-19T02:06:37.546Z,102000.72
2023-05-19T02:11:51.773Z,102003.94
2023-05-19T02:16:54.912Z,102009.19
2023-05-19T02:21:58.345Z,102013.91
2023-05-19T02:27:01.598Z,102021.56
2023-05-19T02:32:04.739Z,102028.25
2023-05-19T02:37:08.492Z,102021.28
2023-05-19T02:42:12.896Z,102023.25
2023-05-19T02:47:16.213Z,102021.06
2023-05-19T02:52:20.202Z,102029.94
2023-05-19T02:57:23.229Z,102029.28
2023-05-19T03:02:26.325Z,102025.63
2023-05-19T03:07:29.355Z,102021.94
2023-05-19T03:12:32.918Z,102009.34
2023-05-19T03:17:36.864Z,101996.06
2023-05-19T03:22:40.042Z,101996.31
2023-05-19T03:27:42.985Z,101989.66
2023-05-19T03:32:46.172Z,101991.28
2023-05-19T03:37:49.440Z,101982.00
2023-05-19T03:42:52.548Z,101979.50
2023-05-19T03:47:55.620Z,101984.25
2023-05-19T03:53:37.004Z,101970.00
2023-05-19T03:58:43.853Z,101972.44
2023-05-19T04:03:47.097Z,101976.91
2023-05-19T04:08:50.334Z,101978.31
2023-05-19T04:13:53.781Z,101975.50
2023-05-19T04:18:57.310Z,101967.53
2023-05-19T04:24:00.970Z,101965.47
2023-05-19T04:29:05.329Z,101955.56
2023-05-19T04:34:08.697Z,101947.66
2023-05-19T04:39:12.817Z,101934.69
2023-05-19T04:44:19.702Z,101923.59
2023-05-19T04:49:25.816Z,101923.09
2023-05-19T04:54:29.005Z,101929.19
2023-05-19T04:59:32.604Z,101921.28
2023-05-19T05:04:36.692Z,101912.75
2023-05-19T05:09:39.601Z,101911.09
2023-05-19T05:14:43.593Z,101897.53
2023-05-19T05:19:47.002Z,101902.97
2023-05-19T05:24:50.227Z,101896.66
2023-05-19T05:29:55.620Z,101888.97
2023-05-19T05:34:59.892Z,101882.41
2023-05-19T05:40:04.206Z,101881.88
2023-05-19T05:45:08.038Z,101881.28
2023-05-19T05:50:12.011Z,101860.16
2023-05-19T05:55:18.043Z,101864.03
2023-05-19T06:00:22.821Z,101869.38
2023-05-19T06:05:29.068Z,101848.94
2023-05-19T06:10:33.763Z,101826.06
2023-05-19T06:15:37.435Z,101830.59
2023-05-19T06:20:53.229Z,101826.81
2023-05-19T06:25:56.889Z,101824.63
2023-05-19T06:31:00.546Z,101819.84
2023-05-19T06:36:24.790Z,101810.06
2023-05-19T06:41:31.209Z,101800.22
2023-05-19T06:46:35.049Z,101798.78
2023-05-19T06:51:38.111Z,101787.09
2023-05-19T06:56:41.512Z,101779.66
2023-05-19T07:01:44.859Z,101766.75
2023-05-19T07:06:48.350Z,101774.19
2023-05-19T07:11:51.802Z,101762.44
2023-05-19T07:16:55.037Z,101753.00
2023-05-19T07:21:59.713Z,101742.03
2023-05-19T07:27:02.746Z,101734.09
2023-05-19T07:32:06.289Z,101733.38
2023-05-19T07:37:09.257Z,101736.75
2023-05-19T07:42:12.153Z,101724.28
2023-05-19T07:47:15.016Z,101722.25
2023-05-19T07:52:18.742Z,101720.91
2023-05-19T07:57:21.661Z,101710.81
2023-05-19T08:02:24.650Z,101714.44
2023-05-19T08:07:30.342Z,101722.19
2023-05-19T08:12:33.204Z,101713.53
2023-05-19T08:17:36.264Z,101700.31
2023-05-19T08:22:39.630Z,101684.84
2023-05-19T08:27:42.599Z,101680.69
2023-05-19T08:32:45.569Z,101686.69
2023-05-19T08:37:48.410Z,101687.56
2023-05-19T08:42:51.757Z,101670.50
2023-05-19T08:47:54.889Z,101664.44
2023-05-19T08:53:25.120Z,101671.38
2023-05-19T08:58:35.335Z,101665.63
2023-05-19T09:03:39.666Z,101659.91
2023-05-19T09:08:43.182Z,101663.47
2023-05-19T09:13:46.556Z,101671.97
2023-05-19T09:18:56.872Z,101656.28
2023-05-19T09:24:06.613Z,101643.50
2023-05-19T09:29:14.176Z,101637.31
2023-05-19T09:34:17.446Z,101630.16
2023-05-19T09:39:21.945Z,101612.94
2023-05-19T09:44:30.018Z,101620.09
2023-05-19T09:49:33.264Z,101617.44
2023-05-19T09:54:36.624Z,101617.31
2023-05-19T09:59:39.864Z,101607.00
2023-05-19T10:04:43.167Z,101614.72
2023-05-19T10:09:46.802Z,101608.53
2023-05-19T10:14:49.721Z,101595.50
2023-05-19T10:19:53.161Z,101592.13
2023-05-19T10:24:56.437Z,101587.69
2023-05-19T10:30:03.083Z,101580.81
2023-05-19T10:35:23.457Z,101579.19
2023-05-19T10:40:39.788Z,101574.91
2023-05-19T10:45:48.636Z,101576.59
2023-05-19T10:50:55.621Z,101569.66
2023-05-19T10:56:04.459Z,101567.13
2023-05-19T11:01:14.687Z,101562.78
2023-05-19T11:06:18.954Z,101561.06
2023-05-19T11:11:23.418Z,101561.88
2023-05-19T11:16:30.951Z,101542.06
2023-05-19T11:21:55.391Z,101548.91
2023-05-19T11:26:58.290Z,101541.13
2023-05-19T11:32:01.336Z,101542.88
2023-05-19T11:37:05.275Z,101530.75
2023-05-19T11:42:11.844Z,101531.63
2023-05-19T11:47:15.658Z,101524.72
2023-05-19T11:52:18.590Z,101519.50
2023-05-19T11:57:21.575Z,101516.97
2023-05-19T12:02:26.460Z,101517.84
2023-05-19T12:07:29.844Z,101525.72
2023-05-19T12:12:32.828Z,101529.19
2023-05-19T12:17:36.162Z,101524.88
2023-05-19T12:22:39.234Z,101532.75
2023-05-19T12:27:43.688Z,101517.44
2023-05-19T12:32:47.335Z,101507.84
2023-05-19T12:37:50.979Z,101515.69
2023-05-19T12:42:59.448Z,101529.38
2023-05-19T12:48:12.030Z,101522.28
2023-05-19T12:53:15.959Z,101536.94
2023-05-19T12:58:19.577Z,101529.50
2023-05-19T13:03:22.732Z,101529.38
2023-05-19T13:08:28.174Z,101523.16
2023-05-19T13:13:31.941Z,101528.44
2023-05-19T13:18:39.318Z,101531.69
2023-05-19T13:23:43.392Z,101527.44
2023-05-19T13:28:47.060Z,101541.72
2023-05-19T13:33:50.344Z,101528.09
2023-05-19T13:38:53.417Z,101542.75
2023-05-19T13:43:59.668Z,101540.19
2023-05-19T13:49:02.748Z,101542.31
2023-05-19T13:54:05.867Z,101545.31
2023-05-19T13:59:09.080Z,101544.16
2023-05-19T14:04:12.411Z,101547.38
2023-05-19T14:09:16.452Z,101551.16
2023-05-19T14:14:19.565Z,101562.31
2023-05-19T14:19:23.571Z,101559.81
2023-05-19T14:24:26.892Z,101562.22
2023-05-19T14:29:31.714Z,101568.28
2023-05-19T14:34:35.823Z,101569.16
2023-05-19T14:39:38.915Z,101571.84
2023-05-19T14:44:41.903Z,101573.84
2023-05-19T14:49:44.950Z,101573.03
2023-05-19T14:54:47.929Z,101576.75
2023-05-19T14:59:51.117Z,101576.44
2023-05-19T15:04:54.575Z,101572.59
2023-05-19T15:09:57.744Z,101570.31
2023-05-19T15:15:00.799Z,101566.59
2023-05-19T15:20:04.385Z,101576.44
2023-05-19T15:25:08.491Z,101575.44
2023-05-19T15:30:11.894Z,101571.56
2023-05-19T15:35:15.113Z,101569.31
2023-05-19T15:40:18.669Z,101569.59
2023-05-19T15:45:22.788Z,101575.34
2023-05-19T15:50:27.170Z,101581.34
2023-05-19T15:55:30.176Z,101579.97
2023-05-19T16:00:33.689Z,101574.59
2023-05-19T16:05:36.820Z,101578.75
2023-05-19T16:10:40.068Z,101585.13
2023-05-19T16:15:43.149Z,101575.16
2023-05-19T16:20:46.346Z,101579.47
2023-05-19T16:25:50.848Z,101581.47
2023-05-19T16:30:59.089Z,101577.78
2023-05-19T16:36:02.219Z,101585.31
2023-05-19T16:41:07.733Z,101579.84
2023-05-19T16:46:12.537Z,101580.97
2023-05-19T16:51:15.596Z,101585.88
2023-05-19T16:56:18.638Z,101594.94
2023-05-19T17:01:22.183Z,101596.91
2023-05-19T17:06:25.346Z,101592.53
2023-05-19T17:11:28.618Z,101592.91
2023-05-19T17:16:31.614Z,101587.69
2023-05-19T17:21:34.765Z,101593.22
2023-05-19T17:26:37.818Z,101591.94
2023-05-19T17:31:41.954Z,101592.44
2023-05-19T17:36:50.038Z,101585.38
2023-05-19T17:41:53.132Z,101585.03
2023-05-19T17:46:56.439Z,101589.44
2023-05-19T17:52:00.152Z,101585.63
2023-05-19T17:57:04.662Z,101591.00
2023-05-19T18:02:08.641Z,101596.13
2023-05-19T18:07:12.578Z,101578.59
2023-05-19T18:12:15.823Z,101584.63
2023-05-19T18:17:18.770Z,101591.00
2023-05-19T18:22:22.562Z,101580.66
2023-05-19T18:27:25.747Z,101579.34
2023-05-19T18:32:30.244Z,101580.56
2023-05-19T18:37:33.154Z,101579.94
2023-05-19T18:42:36.219Z,101576.34
2023-05-19T18:47:39.533Z,101576.28
2023-05-19T18:52:43.040Z,101581.50
2023-05-19T18:57:46.498Z,101572.50
2023-05-19T19:02:50.014Z,101574.34
2023-05-19T19:07:53.780Z,101574.69
2023-05-19T19:12:58.321Z,101566.09
2023-05-19T19:18:01.297Z,101560.66
2023-05-19T19:23:06.995Z,101556.28
2023-05-19T19:28:10.880Z,101550.88
2023-05-19T19:33:13.864Z,101548.22
2023-05-19T19:38:17.112Z,101550.31
2023-05-19T19:43:20.139Z,101558.88
2023-05-19T19:48:23.086Z,101552.25
2023-05-19T19:53:26.168Z,101560.38
2023-05-19T19:58:29.738Z,101562.38
2023-05-19T20:03:33.847Z,101558.63
2023-05-19T20:08:37.025Z,101556.97
2023-05-19T20:13:39.996Z,101556.31
2023-05-19T20:18:43.037Z,101548.09
2023-05-19T20:23:46.640Z,101554.91
2023-05-19T20:28:49.560Z,101553.41
2023-05-19T20:33:52.726Z,101542.94
2023-05-19T20:38:56.257Z,101545.34
2023-05-19T20:43:59.351Z,101535.66
2023-05-19T20:49:02.605Z,101540.25
2023-05-19T20:54:07.708Z,101542.53
2023-05-19T20:59:10.881Z,101532.34
2023-05-19T21:04:14.786Z,101536.72
2023-05-19T21:09:17.966Z,101529.19
2023-05-19T21:14:21.827Z,101530.31
2023-05-19T21:19:24.994Z,101537.38
2023-05-19T21:24:28.810Z,101524.72
2023-05-19T21:29:31.894Z,101530.63
2023-05-19T21:34:35.042Z,101538.63
2023-05-19T21:39:38.126Z,101541.53
2023-05-19T21:44:41.367Z,101540.50
2023-05-19T21:49:44.569Z,101542.72
2023-05-19T21:54:48.323Z,101541.69
2023-05-19T21:59:51.637Z,101548.44
2023-05-19T22:04:54.727Z,101537.31
2023-05-19T22:09:57.632Z,101540.81
2023-05-19T22:15:01.265Z,101543.63
2023-05-19T22:20:06.048Z,101533.06
2023-05-19T22:25:09.223Z,101538.66
2023-05-19T22:30:12.637Z,101535.19
2023-05-19T22:35:15.500Z,101542.75
2023-05-19T22:40:18.608Z,101539.34
2023-05-19T22:45:21.773Z,101534.28
2023-05-19T22:50:24.814Z,101531.91
2023-05-19T22:55:27.852Z,101535.31
2023-05-19T23:00:30.898Z,101537.63
2023-05-19T23:05:34.285Z,101534.25
2023-05-19T23:10:37.353Z,101547.09
2023-05-19T23:15:40.214Z,101537.09
2023-05-19T23:20:43.165Z,101545.03
2023-05-19T23:25:46.548Z,101552.47
2023-05-19T23:30:49.508Z,101543.81
2023-05-19T23:35:52.411Z,101545.28
2023-05-19T23:40:55.345Z,101548.59
2023-05-19T23:45:58.834Z,101553.88
2023-05-19T23:51:01.917Z,101553.13
2023-05-19T23:56:04.968Z,101549.50
